Time;durP1;ratioP1;P1;durP2;ratioP2;P2;SDS_P1;SDS_P2;PMS_P1;PMS_P2;Temp;Humidity;BMP_temperature;BMP_pressure;BME280_temperature;BME280_humidity;BME280_pressure;Samples;Min_cycle;Max_cycle;Signal;HPM_P1;HPM_P2
2021/11/06 00:00:30;;;;;;;11.50;8.40;;;;;;;7.17;74.38;100658.52;114627;1195;108531;-64
2021/11/06 00:03:17;;;;;;;13.20;9.40;;;;;;;7.19;74.50;100661.96;113089;1196;137857;-67
2021/11/06 00:06:04;;;;;;;12.20;9.20;;;;;;;7.21;74.38;100661.42;113175;1197;97530;-66
2021/11/06 00:08:51;;;;;;;12.30;9.60;;;;;;;7.22;74.46;100662.27;114612;1195;137762;-66
2021/11/06 00:11:38;;;;;;;12.20;8.30;;;;;;;7.20;74.51;100659.19;114706;1195;108756;-66
2021/11/06 00:14:25;;;;;;;12.20;8.50;;;;;;;7.19;74.50;100659.89;114482;1195;139266;-67
2021/11/06 00:17:12;;;;;;;11.20;8.70;;;;;;;7.18;74.52;100658.17;113771;1195;97973;-66
2021/11/06 00:19:59;;;;;;;11.40;8.50;;;;;;;7.19;74.46;100660.06;114561;1195;138085;-65
2021/11/06 00:22:46;;;;;;;11.90;8.00;;;;;;;7.16;74.46;100655.75;113262;1190;112533;-63
2021/11/06 00:25:33;;;;;;;12.00;7.90;;;;;;;7.18;74.60;100657.48;114156;1195;138914;-65
2021/11/06 00:28:20;;;;;;;;;;;;;;;7.20;74.69;100660.40;114647;1195;108411;-67
2021/11/06 00:31:07;;;;;;;13.70;8.20;;;;;;;7.17;74.60;100654.36;114682;1195;95881;-66
2021/11/06 00:33:54;;;;;;;14.00;9.20;;;;;;;7.15;74.68;100652.48;114582;1195;137214;-66
2021/11/06 00:36:41;;;;;;;11.50;8.30;;;;;;;7.14;74.68;100652.66;114682;1195;111213;-66
2021/11/06 00:39:28;;;;;;;16.20;9.90;;;;;;;7.14;74.59;100655.96;114567;1195;138359;-66
2021/11/06 00:42:16;;;;;;;11.30;8.80;;;;;;;7.13;74.77;100660.28;114451;1195;107545;-66
2021/11/06 00:45:04;;;;;;;13.40;9.60;;;;;;;7.12;74.75;100669.30;114510;1195;138831;-66
2021/11/06 00:47:50;;;;;;;11.80;9.30;;;;;;;7.09;74.92;100671.23;113806;1195;96192;-66
2021/11/06 00:50:37;;;;;;;11.70;9.40;;;;;;;7.10;75.02;100675.20;112970;1195;138198;-66
2021/11/06 00:53:24;;;;;;;13.60;10.00;;;;;;;7.09;74.87;100685.59;113098;1196;108124;-66
2021/11/06 00:56:14;;;;;;;14.10;10.10;;;;;;;7.08;74.98;100689.92;113211;1195;138790;-66
2021/11/06 00:59:00;;;;;;;15.30;11.20;;;;;;;7.07;74.99;100685.96;114686;1195;95735;-66
2021/11/06 01:01:47;;;;;;;15.00;9.90;;;;;;;7.06;75.19;100690.82;113291;1195;139123;-68
2021/11/06 01:04:34;;;;;;;13.30;10.20;;;;;;;7.06;75.18;100688.40;113282;1196;112305;-66
2021/11/06 01:07:21;;;;;;;14.30;9.90;;;;;;;7.07;75.30;100685.62;114386;1195;107506;-67
2021/11/06 01:10:11;;;;;;;13.60;10.40;;;;;;;7.07;75.29;100683.37;113002;1195;137536;-67
2021/11/06 01:12:57;;;;;;;14.90;11.30;;;;;;;7.09;75.33;100682.82;113488;1197;97621;-65
2021/11/06 01:15:45;;;;;;;13.90;10.80;;;;;;;7.12;75.45;100678.80;113343;1196;137991;-65
2021/11/06 01:18:32;;;;;;;17.00;11.20;;;;;;;7.12;75.20;100683.65;113877;1195;111235;-65
2021/11/06 01:21:19;;;;;;;16.60;11.00;;;;;;;7.11;75.19;100685.05;113787;1196;138656;-66
2021/11/06 01:24:06;;;;;;;15.90;11.40;;;;;;;7.12;75.37;100685.71;113187;1195;108867;-66
2021/11/06 01:26:53;;;;;;;15.20;12.30;;;;;;;7.16;75.36;100694.48;112829;1196;138000;-66
2021/11/06 01:29:40;;;;;;;16.20;11.90;;;;;;;7.17;75.37;100703.48;113437;1195;97524;-65
2021/11/06 01:32:27;;;;;;;16.00;10.90;;;;;;;7.17;75.42;100701.06;113159;1197;138537;-66
2021/11/06 01:35:14;;;;;;;16.10;12.70;;;;;;;7.18;75.40;100703.14;114007;1195;108529;-65
2021/11/06 01:38:01;;;;;;;18.50;13.50;;;;;;;7.19;75.39;100702.27;113859;1196;138893;-65
2021/11/06 01:40:48;;;;;;;15.30;12.70;;;;;;;7.19;75.45;100703.13;114508;1195;97460;-65
2021/11/06 01:43:34;;;;;;;19.50;13.10;;;;;;;7.21;75.57;100703.98;113348;1195;97513;-65
2021/11/06 01:46:22;;;;;;;15.80;11.60;;;;;;;7.23;75.50;100702.55;114548;1195;138302;-65
2021/11/06 01:49:08;;;;;;;16.50;12.10;;;;;;;7.24;75.37;100704.61;114685;1195;110233;-65
2021/11/06 01:51:55;;;;;;;20.00;13.70;;;;;;;7.27;75.41;100704.75;114511;1195;137691;-65
2021/11/06 01:54:42;;;;;;;19.90;13.90;;;;;;;7.30;75.54;100703.86;114661;1193;95990;-65
2021/11/06 01:57:29;;;;;;;16.20;12.80;;;;;;;7.31;75.44;100700.73;114604;1195;138787;-65
2021/11/06 02:00:24;;;;;;;16.50;12.50;;;;;;;7.30;75.22;100702.47;114343;1195;112274;-65
2021/11/06 02:03:12;;;;;;;16.70;13.50;;;;;;;7.30;75.32;100706.80;113156;1195;139181;-65
2021/11/06 02:05:59;;;;;;;17.50;13.50;;;;;;;7.32;75.45;100713.17;113345;1195;108512;-67
2021/11/06 02:08:46;;;;;;;18.40;12.90;;;;;;;7.33;75.37;100711.42;114382;1196;138152;-66
2021/11/06 02:11:38;;;;;;;15.90;13.10;;;;;;;7.33;75.54;100715.93;114674;1195;95579;-66
2021/11/06 02:14:24;;;;;;;17.80;13.70;;;;;;;7.33;75.49;100719.39;114122;1195;138581;-65
2021/11/06 02:17:12;;;;;;;16.70;14.40;;;;;;;7.35;75.68;100720.74;114200;1195;108169;-66
2021/11/06 02:19:59;;;;;;;19.30;14.40;;;;;;;7.37;75.62;100720.23;113875;1195;138139;-67
2021/11/06 02:22:46;;;;;;;18.50;14.30;;;;;;;7.38;75.63;100716.93;113223;1197;98187;-67
2021/11/06 02:25:33;;;;;;;20.50;15.20;;;;;;;7.39;75.50;100714.84;114679;1195;95824;-65
2021/11/06 02:28:42;;;;;;;18.70;14.30;;;;;;;7.39;75.61;100705.50;113188;1195;137702;-66
2021/11/06 02:31:30;;;;;;;18.80;15.70;;;;;;;7.38;75.53;100709.83;114352;1195;109669;-65
2021/11/06 02:34:17;;;;;;;18.80;14.90;;;;;;;7.37;75.65;100711.59;114328;1195;137703;-67
2021/11/06 02:37:04;;;;;;;19.60;15.40;;;;;;;7.34;75.50;100712.29;113534;1195;96817;-66
2021/11/06 02:39:51;;;;;;;17.30;14.00;;;;;;;7.35;75.76;100710.37;112918;1195;138360;-66
2021/11/06 02:42:37;;;;;;;17.90;14.50;;;;;;;7.38;75.77;100713.30;113118;1195;112183;-66
2021/11/06 02:45:24;;;;;;;18.60;15.00;;;;;;;7.38;75.75;100714.85;112987;1195;138513;-66
2021/11/06 02:48:11;;;;;;;22.10;16.00;;;;;;;7.39;75.73;100717.96;113091;1197;108543;-67
2021/11/06 02:50:58;;;;;;;20.70;16.50;;;;;;;7.39;75.76;100718.65;113102;1195;138343;-65
2021/11/06 02:53:45;;;;;;;21.00;16.10;;;;;;;7.40;75.93;100722.44;114641;1195;95632;-66
2021/11/06 02:56:32;;;;;;;21.70;16.60;;;;;;;7.42;75.94;100721.71;113380;1195;138315;-66
2021/11/06 02:59:19;;;;;;;22.20;18.00;;;;;;;7.45;76.15;100717.70;114725;1195;107790;-65
2021/11/06 03:02:05;;;;;;;22.40;17.30;;;;;;;7.42;76.07;100718.44;113337;1195;107559;-66
2021/11/06 03:04:53;;;;;;;21.00;16.90;;;;;;;7.38;76.11;100722.81;113520;1195;139351;-66
2021/11/06 03:07:40;;;;;;;20.50;16.40;;;;;;;7.41;76.21;100721.04;114369;1195;96112;-65
2021/11/06 03:10:27;;;;;;;19.70;16.60;;;;;;;7.43;76.28;100718.41;114556;1195;137928;-65
2021/11/06 03:13:13;;;;;;;21.30;17.30;;;;;;;7.44;76.17;100713.39;114576;1195;108803;-65
2021/11/06 03:16:00;;;;;;;22.00;18.00;;;;;;;7.43;76.22;100714.79;114501;1195;137778;-65
2021/11/06 03:18:47;;;;;;;19.90;16.70;;;;;;;7.43;76.33;100715.48;114605;1195;95834;-65
2021/11/06 03:21:34;;;;;;;20.30;17.20;;;;;;;7.45;76.18;100720.48;114439;1185;138215;-66
2021/11/06 03:24:20;;;;;;;22.10;16.40;;;;;;;7.46;76.19;100728.06;113926;1195;112184;-66
2021/11/06 03:27:08;;;;;;;21.30;18.00;;;;;;;7.48;76.19;100725.10;114441;1195;137821;-66
2021/11/06 03:29:55;;;;;;;18.80;15.80;;;;;;;7.49;76.17;100724.91;114437;1195;108312;-66
2021/11/06 03:32:42;;;;;;;18.60;16.00;;;;;;;7.51;76.11;100724.88;113614;1195;138567;-65
2021/11/06 03:35:29;;;;;;;21.40;16.40;;;;;;;7.51;75.93;100723.67;114657;1195;95731;-66
2021/11/06 03:38:16;;;;;;;19.50;16.30;;;;;;;7.53;75.99;100728.14;112962;1196;109480;-65
2021/11/06 03:41:03;;;;;;;17.60;15.50;;;;;;;7.52;75.89;100727.29;114348;1195;137699;-66
2021/11/06 03:43:49;;;;;;;20.40;15.00;;;;;;;7.49;75.72;100732.02;114051;1195;108417;-66
2021/11/06 03:46:36;;;;;;;18.70;16.70;;;;;;;7.48;75.73;100728.73;114541;1195;138120;-66
2021/11/06 03:49:23;;;;;;;19.30;16.40;;;;;;;7.48;75.80;100735.65;114446;1196;95847;-66
2021/11/06 03:52:10;;;;;;;22.80;17.00;;;;;;;7.46;75.74;100736.54;114523;1195;138625;-66
2021/11/06 03:54:57;;;;;;;18.40;16.00;;;;;;;7.44;75.81;100728.95;114629;1195;109256;-66
2021/11/06 03:57:44;;;;;;;16.20;14.50;;;;;;;7.45;75.78;100736.55;114132;1195;138854;-65
2021/11/06 04:00:31;;;;;;;17.80;14.70;;;;;;;7.46;75.63;100734.64;114665;1195;96050;-66
2021/11/06 04:03:18;;;;;;;16.90;14.10;;;;;;;7.45;75.57;100732.77;114567;1195;138795;-66
2021/11/06 04:06:05;;;;;;;16.10;14.00;;;;;;;7.45;75.55;100736.91;114652;1195;112273;-66
2021/11/06 04:08:54;;;;;;;16.00;12.90;;;;;;;7.43;75.48;100725.17;114446;1195;138291;-64
2021/11/06 04:11:40;;;;;;;15.60;13.30;;;;;;;7.42;75.46;100725.17;114713;1195;108813;-66
2021/11/06 04:14:27;;;;;;;16.90;13.50;;;;;;;7.41;75.35;100718.96;114130;1195;97424;-66
2021/11/06 04:17:14;;;;;;;14.40;12.90;;;;;;;7.43;75.21;100719.27;113292;1195;137685;-66
2021/11/06 04:20:02;;;;;;;15.30;13.20;;;;;;;7.43;75.23;100726.54;113133;1195;110749;-66
2021/11/06 04:22:50;;;;;;;13.70;12.00;;;;;;;7.42;75.19;100725.17;113803;1195;138535;-65
2021/11/06 04:25:37;;;;;;;14.80;12.50;;;;;;;7.42;75.15;100728.98;114697;1195;107652;-65
2021/11/06 04:28:24;;;;;;;15.90;13.20;;;;;;;7.41;75.06;100731.08;114504;1195;137851;-65
2021/11/06 04:31:11;;;;;;;13.70;12.00;;;;;;;7.40;75.04;100732.30;114654;1195;96423;-65
2021/11/06 04:34:00;;;;;;;15.60;12.40;;;;;;;7.40;75.17;100731.95;113745;1195;138387;-66
2021/11/06 04:36:47;;;;;;;13.50;10.50;;;;;;;7.41;74.76;100731.42;113251;1182;108694;-65
2021/11/06 04:39:34;;;;;;;14.00;12.00;;;;;;;7.41;74.83;100733.16;113013;1195;138283;-66
2021/11/06 04:42:21;;;;;;;13.30;11.90;;;;;;;7.40;74.85;100730.22;113245;1195;97524;-65
2021/11/06 04:45:10;;;;;;;13.70;11.30;;;;;;;7.41;74.88;100733.67;114611;1195;137660;-66
2021/11/06 04:47:57;;;;;;;14.50;11.80;;;;;;;7.39;74.79;100725.91;114662;1195;112361;-65
2021/11/06 04:50:44;;;;;;;13.40;10.80;;;;;;;7.37;74.84;100727.66;113217;1195;108373;-65
2021/11/06 04:53:31;;;;;;;12.60;10.80;;;;;;;7.35;74.73;100727.84;113000;1195;138194;-66
2021/11/06 04:56:18;;;;;;;13.50;11.40;;;;;;;7.34;74.65;100731.14;113706;1195;97554;-66
2021/11/06 04:59:05;;;;;;;14.90;11.50;;;;;;;7.33;74.63;100728.39;114598;1195;137987;-66
2021/11/06 05:01:52;;;;;;;14.70;11.10;;;;;;;7.31;74.59;100729.45;114677;1195;112022;-66
2021/11/06 05:04:39;;;;;;;12.00;10.50;;;;;;;7.29;74.64;100734.66;114504;1195;138556;-66
2021/11/06 05:07:26;;;;;;;12.10;10.80;;;;;;;7.28;74.51;100733.29;113200;1195;107549;-66
2021/11/06 05:10:12;;;;;;;13.50;11.60;;;;;;;7.26;74.63;100736.94;112922;1195;137803;-66
2021/11/06 05:12:59;;;;;;;12.30;10.90;;;;;;;7.24;74.59;100734.71;113071;1195;97559;-66
2021/11/06 05:15:46;;;;;;;13.20;10.90;;;;;;;7.24;74.51;100739.56;113055;1195;138142;-67
2021/11/06 05:18:33;;;;;;;13.90;11.40;;;;;;;7.23;74.62;100744.06;114690;1194;106920;-65
2021/11/06 05:21:22;;;;;;;13.70;11.00;;;;;;;7.23;74.44;100744.08;113184;1195;138322;-65
2021/11/06 05:24:09;;;;;;;14.10;11.90;;;;;;;7.24;74.47;100747.34;113188;1195;97515;-66
2021/11/06 05:26:56;;;;;;;12.40;11.10;;;;;;;7.25;74.40;100753.22;114137;1195;97509;-66
2021/11/06 05:29:43;;;;;;;12.00;10.00;;;;;;;7.23;74.36;100753.75;114544;1195;138203;-66
2021/11/06 05:32:29;;;;;;;12.90;10.90;;;;;;;7.24;74.37;100757.02;114672;1195;108190;-66
2021/11/06 05:35:16;;;;;;;13.80;10.80;;;;;;;7.26;74.36;100760.27;113124;1195;138694;-66
2021/11/06 05:38:03;;;;;;;14.80;11.70;;;;;;;7.27;74.23;100757.52;114600;1195;95961;-66
2021/11/06 05:40:49;;;;;;;13.10;11.20;;;;;;;7.26;74.36;100763.57;114011;1195;139813;-66
2021/11/06 05:43:36;;;;;;;11.90;10.20;;;;;;;7.28;74.14;100767.88;114485;1195;112190;-66
2021/11/06 05:46:22;;;;;;;12.50;10.70;;;;;;;7.28;74.13;100767.88;114554;1195;138307;-66
2021/11/06 05:49:10;;;;;;;15.60;11.40;;;;;;;7.30;74.11;100770.45;114647;1195;108579;-66
2021/11/06 05:51:57;;;;;;;12.30;10.70;;;;;;;7.32;74.16;100769.58;114477;1195;138712;-66
2021/11/06 05:54:43;;;;;;;12.10;10.00;;;;;;;7.32;74.06;100770.78;113386;1195;97618;-66
2021/11/06 05:57:32;;;;;;;11.40;10.00;;;;;;;7.32;74.05;100771.98;113491;1195;138507;-66
2021/11/06 06:00:20;;;;;;;11.90;10.40;;;;;;;7.35;74.10;100772.98;114691;1195;108897;-66
2021/11/06 06:03:06;;;;;;;12.80;10.90;;;;;;;7.37;74.05;100781.46;113573;1195;108785;-66
2021/11/06 06:05:53;;;;;;;13.00;11.50;;;;;;;7.36;74.07;100780.77;114431;1195;138362;-66
2021/11/06 06:08:40;;;;;;;11.80;9.80;;;;;;;7.35;74.13;100780.59;114663;1195;95885;-66
2021/11/06 06:11:27;;;;;;;12.90;10.90;;;;;;;7.38;74.21;100785.96;114591;1195;138113;-66
2021/11/06 06:14:15;;;;;;;12.40;10.50;;;;;;;7.40;74.19;100787.83;114685;1195;107626;-67
2021/11/06 06:17:02;;;;;;;12.30;10.50;;;;;;;7.41;74.11;100789.03;114477;1195;138622;-64
2021/11/06 06:19:49;;;;;;;11.50;9.90;;;;;;;7.41;74.10;100790.24;114307;1192;95878;-64
2021/11/06 06:22:37;;;;;;;11.60;10.10;;;;;;;7.42;74.16;100790.40;112898;1195;138134;-64
2021/11/06 06:25:24;;;;;;;12.20;10.70;;;;;;;7.46;74.15;100788.27;114487;1195;112230;-65
2021/11/06 06:28:11;;;;;;;13.10;11.70;;;;;;;7.49;74.14;100792.21;113326;1195;138437;-65
2021/11/06 06:30:57;;;;;;;12.00;10.20;;;;;;;7.50;74.15;100791.17;114614;1195;108901;-64
2021/11/06 06:33:44;;;;;;;14.50;10.80;;;;;;;7.53;74.23;100789.23;114395;1195;138438;-65
2021/11/06 06:36:31;;;;;;;11.40;9.90;;;;;;;7.61;74.18;100797.11;113030;1195;97658;-64
2021/11/06 06:39:18;;;;;;;14.60;11.00;;;;;;;7.71;74.12;100802.36;114159;1195;112651;-65
2021/11/06 06:42:05;;;;;;;11.90;10.30;;;;;;;7.83;73.81;100804.12;113482;1195;138264;-64
2021/11/06 06:44:52;;;;;;;13.30;10.40;;;;;;;7.97;73.60;100803.78;114696;1195;108604;-64
2021/11/06 06:47:39;;;;;;;14.20;10.00;;;;;;;8.10;73.40;100805.88;114420;1195;137742;-64
2021/11/06 06:50:26;;;;;;;11.80;9.80;;;;;;;8.14;73.11;100805.63;114678;1195;95759;-65
2021/11/06 06:53:13;;;;;;;11.00;9.30;;;;;;;8.12;72.94;100811.90;114455;1196;138349;-65
2021/11/06 06:56:00;;;;;;;;;;;;;;;8.09;73.03;100814.90;114076;1195;107408;-66
2021/11/06 06:58:47;;;;;;;13.60;10.30;;;;;;;8.04;72.90;100818.58;113707;1195;123852;-64
2021/11/06 07:01:33;;;;;;;12.30;9.80;;;;;;;8.02;73.19;100818.61;114046;1195;97495;-65
2021/11/06 07:04:20;;;;;;;9.70;8.40;;;;;;;8.03;73.16;100823.44;112948;1195;138773;-63
2021/11/06 07:07:07;;;;;;;11.40;9.50;;;;;;;8.05;73.08;100825.14;113026;1195;112187;-64
2021/11/06 07:09:54;;;;;;;;;;;;;;;8.10;73.18;100819.73;113079;1195;137716;-65
2021/11/06 07:12:42;;;;;;;11.10;9.30;;;;;;;8.19;73.21;100823.75;113167;1195;108733;-65
2021/11/06 07:15:29;;;;;;;14.80;9.70;;;;;;;8.26;72.91;100826.61;113156;1195;98107;-65
2021/11/06 07:18:16;;;;;;;11.50;9.10;;;;;;;8.34;72.82;100825.31;113000;1195;137821;-65
2021/11/06 07:21:03;;;;;;;12.60;9.40;;;;;;;8.40;72.54;100833.19;113098;1195;111691;-65
2021/11/06 07:23:51;;;;;;;10.60;9.00;;;;;;;8.45;72.41;100835.74;113087;1195;138690;-65
2021/11/06 07:26:37;;;;;;;11.50;9.60;;;;;;;8.48;72.31;100836.05;114685;1195;107542;-66
2021/11/06 07:29:24;;;;;;;15.50;9.50;;;;;;;8.46;72.22;100838.52;114472;1195;137737;-66
2021/11/06 07:32:12;;;;;;;13.80;8.90;;;;;;;8.49;72.31;100841.06;114664;1195;95821;-66
2021/11/06 07:34:59;;;;;;;10.30;8.20;;;;;;;8.59;72.30;100840.56;114492;1195;138326;-66
2021/11/06 07:37:46;;;;;;;9.20;7.80;;;;;;;8.67;71.92;100845.31;114718;1195;108827;-66
2021/11/06 07:40:33;;;;;;;12.20;9.10;;;;;;;8.69;71.60;100841.64;114160;1187;137640;-66
2021/11/06 07:43:20;;;;;;;13.60;8.50;;;;;;;8.68;71.63;100848.75;113116;1195;97567;-65
2021/11/06 07:46:07;;;;;;;11.20;7.90;;;;;;;8.72;71.60;100850.94;113101;1195;137534;-65
2021/11/06 07:48:54;;;;;;;10.60;7.60;;;;;;;8.74;71.59;100848.30;113242;1195;111724;-64
2021/11/06 07:51:41;;;;;;;12.00;7.80;;;;;;;8.80;71.44;100851.34;113249;1195;108058;-65
2021/11/06 07:54:29;;;;;;;11.80;7.70;;;;;;;8.84;71.22;100851.11;113069;1195;137620;-65
2021/11/06 07:57:16;;;;;;;10.30;8.20;;;;;;;8.87;71.22;100848.83;114668;1195;95927;-65
2021/11/06 08:00:10;;;;;;;10.50;7.50;;;;;;;8.91;71.11;100848.92;114547;1195;137892;-65
2021/11/06 08:02:57;;;;;;;9.70;7.30;;;;;;;8.93;70.94;100854.77;113526;1195;112125;-65
2021/11/06 08:05:44;;;;;;;11.10;7.20;;;;;;;8.97;70.81;100851.08;114582;1195;137853;-65
2021/11/06 08:08:31;;;;;;;;;;;;;;;9.21;70.82;100850.86;113541;1195;108564;-65
2021/11/06 08:11:17;;;;;;;9.10;6.80;;;;;;;9.55;70.07;100850.95;113053;1195;124175;-64
2021/11/06 08:14:04;;;;;;;10.70;7.50;;;;;;;9.74;69.57;100850.25;113050;1195;97503;-66
2021/11/06 08:16:56;;;;;;;10.10;7.50;;;;;;;9.87;69.26;100849.13;114548;1195;137397;-66
2021/11/06 08:19:42;;;;;;;12.70;8.10;;;;;;;9.88;68.93;100850.85;114501;1195;108558;-66
2021/11/06 08:22:29;;;;;;;10.40;6.60;;;;;;;9.77;68.69;100852.82;112954;1187;138128;-66
2021/11/06 08:25:16;;;;;;;10.60;7.30;;;;;;;9.69;68.68;100855.04;113195;1195;97628;-65
2021/11/06 08:28:03;;;;;;;11.80;7.70;;;;;;;9.58;68.59;100857.31;113513;1195;97521;-65
2021/11/06 08:30:50;;;;;;;11.10;7.50;;;;;;;9.49;68.88;100864.77;113045;1195;112807;-65
2021/11/06 08:33:37;;;;;;;11.40;8.00;;;;;;;9.39;68.92;100863.39;113181;1195;108498;-65
2021/11/06 08:36:24;;;;;;;10.80;7.30;;;;;;;9.30;69.07;100869.77;113057;1195;137917;-66
2021/11/06 08:39:11;;;;;;;;;;;;;;;9.23;69.23;100871.13;113090;1195;97612;-66
2021/11/06 08:41:58;;;;;;;9.90;7.30;;;;;;;9.15;69.31;100870.40;112956;1195;124124;-65
2021/11/06 08:44:46;;;;;;;11.90;7.90;;;;;;;9.05;69.46;100879.58;113070;1195;112457;-65
2021/11/06 08:47:33;;;;;;;11.60;7.70;;;;;;;8.98;69.71;100882.46;113103;1195;137753;-65
2021/11/06 08:50:24;;;;;;;12.50;8.20;;;;;;;8.89;69.93;100887.97;113182;1195;108159;-65
2021/11/06 08:53:11;;;;;;;11.20;7.80;;;;;;;8.80;70.01;100885.50;112990;1195;138140;-64
2021/11/06 08:55:58;;;;;;;10.70;6.80;;;;;;;8.72;70.25;100885.27;113089;1195;97633;-65
2021/11/06 08:58:45;;;;;;;12.60;7.70;;;;;;;8.69;70.56;100884.98;112945;1195;137884;-65
2021/11/06 09:01:32;;;;;;;14.30;8.70;;;;;;;8.66;70.56;100888.84;113972;1195;108092;-65
2021/11/06 09:04:19;;;;;;;9.80;7.60;;;;;;;8.62;70.81;100885.95;113084;1195;108650;-65
2021/11/06 09:07:06;;;;;;;12.80;8.80;;;;;;;8.59;70.88;100886.13;114236;1195;137239;-65
2021/11/06 09:09:53;;;;;;;11.60;8.20;;;;;;;8.52;70.87;100883.99;113211;1195;97544;-65
2021/11/06 09:12:41;;;;;;;12.50;8.10;;;;;;;8.43;71.11;100886.02;114571;1195;138510;-65
2021/11/06 09:15:28;;;;;;;10.50;8.50;;;;;;;8.41;71.28;100882.57;113521;1187;108568;-64
2021/11/06 09:18:15;;;;;;;13.00;8.80;;;;;;;8.42;71.44;100884.98;114530;1195;137628;-65
2021/11/06 09:21:02;;;;;;;12.90;9.50;;;;;;;8.42;71.58;100888.27;114529;1195;97516;-65
2021/11/06 09:23:50;;;;;;;14.00;8.90;;;;;;;8.38;71.70;100888.67;113330;1195;138433;-63
2021/11/06 09:26:43;;;;;;;13.40;7.80;;;;;;;8.36;71.79;100887.66;113193;1195;113097;-64
2021/11/06 09:29:30;;;;;;;12.90;8.90;;;;;;;8.34;71.90;100897.73;113197;1195;137964;-65
2021/11/06 09:32:17;;;;;;;11.40;9.00;;;;;;;8.33;71.96;100904.15;113093;1182;108386;-65
2021/11/06 09:35:05;;;;;;;13.60;9.30;;;;;;;8.31;72.04;100901.05;112970;1195;137837;-66
2021/11/06 09:37:51;;;;;;;12.40;8.50;;;;;;;8.28;72.03;100899.36;113103;1195;97526;-65
2021/11/06 09:40:38;;;;;;;12.90;8.70;;;;;;;8.26;72.10;100891.41;113199;1195;111709;-65
2021/11/06 09:43:26;;;;;;;14.50;9.20;;;;;;;8.24;72.26;100889.16;113505;1195;107630;-65
2021/11/06 09:46:15;;;;;;;17.20;10.00;;;;;;;8.23;72.38;100894.02;114605;1195;107491;-65
2021/11/06 09:49:02;;;;;;;13.20;9.20;;;;;;;8.20;72.47;100881.77;114495;1195;138661;-65
2021/11/06 09:51:52;;;;;;;11.70;8.80;;;;;;;8.19;72.52;100882.65;114583;1195;95752;-65
2021/11/06 09:54:40;;;;;;;14.40;9.20;;;;;;;8.24;72.56;100882.77;114590;1195;138888;-66
2021/11/06 09:57:26;;;;;;;17.10;9.90;;;;;;;8.26;72.32;100882.05;114599;1195;109781;-66
2021/11/06 10:00:16;;;;;;;11.50;8.90;;;;;;;8.28;72.16;100876.32;114554;1195;138001;-66
2021/11/06 10:03:03;;;;;;;11.80;8.80;;;;;;;8.28;72.10;100881.86;114592;1195;95763;-65
2021/11/06 10:05:52;;;;;;;13.50;8.40;;;;;;;8.30;72.15;100878.02;114506;1195;138752;-65
2021/11/06 10:08:39;;;;;;;12.60;8.30;;;;;;;8.33;72.08;100879.38;114667;1195;112280;-65
2021/11/06 10:11:29;;;;;;;12.30;9.20;;;;;;;8.39;72.19;100874.45;113068;1195;138628;-66
2021/11/06 10:14:23;;;;;;;14.10;9.40;;;;;;;8.41;72.05;100875.46;114681;1195;108591;-66
2021/11/06 10:17:09;;;;;;;11.80;8.50;;;;;;;8.43;72.06;100878.90;114526;1195;137587;-67
2021/11/06 10:19:56;;;;;;;12.30;9.20;;;;;;;8.48;72.02;100879.37;114602;1195;96481;-66
2021/11/06 10:22:44;;;;;;;15.80;10.60;;;;;;;8.53;71.89;100874.27;114683;1195;112496;-66
2021/11/06 10:25:31;;;;;;;15.60;10.80;;;;;;;8.57;71.85;100878.20;114546;1195;138049;-66
2021/11/06 10:28:22;;;;;;;11.70;9.20;;;;;;;8.62;71.68;100877.62;114061;1195;107575;-65
2021/11/06 10:31:10;;;;;;;14.80;10.00;;;;;;;8.62;71.62;100883.00;112880;1195;137553;-65
2021/11/06 10:33:57;;;;;;;13.50;9.90;;;;;;;8.62;71.67;100883.52;114569;1195;96044;-65
2021/11/06 10:36:44;;;;;;;16.70;10.40;;;;;;;8.64;71.70;100883.33;113160;1195;138140;-65
2021/11/06 10:39:31;;;;;;;15.30;10.60;;;;;;;8.62;71.59;100873.12;113137;1195;108664;-65
2021/11/06 10:42:19;;;;;;;13.50;10.60;;;;;;;8.62;71.64;100876.59;113039;1195;137934;-65
2021/11/06 10:45:13;;;;;;;12.50;10.10;;;;;;;8.59;71.76;100884.58;113120;1195;97631;-65
2021/11/06 10:48:12;;;;;;;13.30;10.10;;;;;;;8.56;71.69;100883.42;113222;1195;139908;-65
2021/11/06 10:51:11;;;;;;;16.50;10.60;;;;;;;8.56;71.72;100884.80;114625;1195;112765;-66
2021/11/06 10:53:59;;;;;;;14.20;9.90;;;;;;;8.57;71.80;100887.38;113089;1195;138326;-65
2021/11/06 10:56:54;;;;;;;15.30;10.70;;;;;;;8.57;71.92;100881.67;114659;1195;108572;-66
2021/11/06 11:00:27;;;;;;;16.10;10.90;;;;;;;8.56;71.97;100880.98;114369;1195;137822;-65
2021/11/06 11:03:27;;;;;;;13.60;9.90;;;;;;;8.59;71.91;100876.96;113243;1195;97516;-66
2021/11/06 11:06:19;;;;;;;17.50;10.60;;;;;;;8.60;71.89;100877.98;113027;1195;137942;-65
2021/11/06 11:09:27;;;;;;;16.20;11.40;;;;;;;8.63;72.00;100878.30;114025;1195;108554;-65
2021/11/06 11:12:17;;;;;;;17.70;11.20;;;;;;;8.60;71.95;100874.52;114513;1195;137978;-65
2021/11/06 11:15:04;;;;;;;14.10;10.30;;;;;;;8.59;72.10;100872.45;113724;1195;97596;-65
2021/11/06 11:17:52;;;;;;;18.90;12.30;;;;;;;8.60;72.20;100876.25;114546;1195;137991;-66
2021/11/06 11:20:39;;;;;;;17.00;11.40;;;;;;;8.64;72.14;100873.27;114041;1195;112237;-66
2021/11/06 11:23:26;;;;;;;17.70;12.20;;;;;;;8.64;72.16;100873.79;113067;1195;137964;-66
2021/11/06 11:26:17;;;;;;;16.70;11.60;;;;;;;8.64;72.23;100869.63;114612;1195;107528;-66
2021/11/06 11:29:06;;;;;;;17.20;11.20;;;;;;;8.64;72.27;100862.17;113119;1195;97911;-65
2021/11/06 11:31:59;;;;;;;16.30;11.50;;;;;;;8.67;72.23;100860.20;114643;1195;95893;-66
2021/11/06 11:34:46;;;;;;;18.40;11.60;;;;;;;8.68;72.29;100856.73;114146;1195;111899;-65
2021/11/06 11:37:33;;;;;;;19.10;12.60;;;;;;;8.68;72.26;100851.70;113891;1195;139102;-66
2021/11/06 11:40:20;;;;;;;17.10;10.90;;;;;;;8.68;72.25;100850.31;114554;1195;106228;-66
2021/11/06 11:43:26;;;;;;;16.20;10.70;;;;;;;8.71;72.33;100844.02;113001;1195;138581;-66
2021/11/06 11:46:20;;;;;;;21.00;11.50;;;;;;;8.77;72.33;100842.37;114647;1195;95768;-65
2021/11/06 11:49:08;;;;;;;17.30;11.30;;;;;;;8.83;72.25;100843.34;113022;1195;138300;-66
2021/11/06 11:51:55;;;;;;;17.80;10.60;;;;;;;8.84;72.24;100845.39;114661;1195;107341;-64
2021/11/06 11:55:13;;;;;;;14.60;9.50;;;;;;;8.86;72.26;100841.89;114483;1195;138889;-64
2021/11/06 11:58:12;;;;;;;13.00;9.10;;;;;;;8.94;72.19;100838.98;114514;1195;96193;-66
2021/11/06 12:01:01;;;;;;;15.90;10.20;;;;;;;8.98;72.04;100836.33;112983;1195;137757;-66
2021/11/06 12:03:50;;;;;;;11.60;9.00;;;;;;;9.00;72.05;100838.02;113141;1195;112242;-65
2021/11/06 12:06:39;;;;;;;12.90;10.00;;;;;;;9.03;71.95;100835.70;113839;1195;137555;-66
2021/11/06 12:09:26;;;;;;;13.70;9.40;;;;;;;9.09;72.04;100825.55;114631;1195;108524;-66
2021/11/06 12:12:14;;;;;;;12.80;8.80;;;;;;;9.17;71.84;100822.33;114486;1195;138428;-66
2021/11/06 12:15:01;;;;;;;12.00;8.70;;;;;;;9.20;71.88;100821.91;113210;1195;97622;-65
2021/11/06 12:17:47;;;;;;;13.50;9.00;;;;;;;9.24;71.79;100823.04;113097;1193;139472;-65
2021/11/06 12:20:34;;;;;;;14.90;10.30;;;;;;;9.29;71.81;100822.77;113238;1195;109035;-65
2021/11/06 12:23:33;;;;;;;13.30;9.20;;;;;;;9.35;71.78;100830.14;113143;1195;107685;-66
2021/11/06 12:26:21;;;;;;;11.70;8.70;;;;;;;9.37;71.79;100827.16;113111;1195;97516;-65
2021/11/06 12:29:11;;;;;;;15.90;9.20;;;;;;;9.42;71.75;100830.02;113166;1195;97508;-66
2021/11/06 12:32:10;;;;;;;12.30;9.40;;;;;;;9.47;71.77;100831.82;112991;1195;138667;-66
2021/11/06 12:35:12;;;;;;;14.90;10.10;;;;;;;9.52;71.77;100840.26;113174;1195;108629;-66
2021/11/06 12:38:01;;;;;;;14.30;9.30;;;;;;;9.55;71.71;100833.43;114124;1195;137732;-65
2021/11/06 12:40:48;;;;;;;13.20;9.60;;;;;;;9.58;71.76;100823.80;114153;1195;97508;-67